Senin
| Ora | Descriere | Temp | Se simte | Precipitatii | Umiditate | Vant |
|---|---|---|---|---|---|---|
| 00:00 | Senin | 13.1° | 13° | 0% | 58% | SE 5.8 KM/H |
| 01:00 | Senin | 12.3° | 12.2° | 0% | 61% | SSE 5.8 KM/H |
| 02:00 | Senin | 11.7° | 11.4° | 0% | 64% | SSE 6.1 KM/H |
| 03:00 | Senin | 11.1° | 10.8° | 0% | 58% | SSE 7.2 KM/H |
| 04:00 | Senin | 11.1° | 10.4° | 0% | 69% | SSE 7.6 KM/H |
| 05:00 | Senin | 10.7° | 10° | 0% | 71% | SE 7.2 KM/H |
| 06:00 | Senin | 10.3° | 9.8° | 0% | 73% | SSE 6.5 KM/H |
| 07:00 | Senin | 11.1° | 10.8° | 0% | 72% | SSE 5.8 KM/H |
| 08:00 | Senin | 14.1° | 14.3° | 0% | 65% | SE 5.4 KM/H |
| 09:00 | Senin | 17° | 17° | 0% | 57% | SSE 5.4 KM/H |
| 10:00 | Senin | 19.2° | 19.2° | 0% | 51% | SSW 4.7 KM/H |
| 11:00 | Senin | 20.9° | 20.9° | 0% | 47% | SSW 5.8 KM/H |
| 12:00 | Senin | 22.3° | 24.3° | 0% | 43% | SSW 7.2 KM/H |
| 13:00 | Senin | 23.4° | 24.5° | 0% | 40% | SW 10.1 KM/H |
| 14:00 | Senin | 24.1° | 24.8° | 0% | 40% | SW 12.6 KM/H |
| 15:00 | Senin | 24.5° | 25° | 0% | 39% | SW 13.7 KM/H |
| 16:00 | Senin | 24.7° | 25.1° | 0% | 38% | SW 14 KM/H |
| 17:00 | Senin | 24.7° | 24.9° | 0% | 35% | SSW 15.8 KM/H |
| 18:00 | Senin | 24.1° | 24.8° | 0% | 39% | SSW 15.1 KM/H |
| 19:00 | Senin | 22.3° | 24.4° | 0% | 48% | SSW 11.2 KM/H |
| 20:00 | Senin | 19.2° | 19.2° | 0% | 55% | SSW 8.6 KM/H |
| 21:00 | Senin | 16.7° | 16.7° | 0% | 56% | S 9 KM/H |
| 22:00 | Senin | 15.7° | 15.7° | 0% | 57% | SSE 9.7 KM/H |
| 23:00 | Senin | 15.1° | 15.1° | 0% | 58% | SSE 10.4 KM/H |